Flight Track Log - Related Links

Times and Time Zones

All times are in EDT time to prevent confusion due to time zone crossing. See the N412MM flight status page for this flight to view local times or setup timezone preferences in your user account.

Time Position Orientation Groundspeed Altitude Reporting Facility
EDT Latitude Longitude Course Direction KTS MPH feet Rate Location/Type
Mon 12:50:36 PM 30.9419 -81.7469 16° North 147 169 2,900  Level Jacksonville Center
Mon 12:55:36 PM 31.1147 -81.6889 18° North 126 145 3,000 17 Climbing Jacksonville Center
Mon 12:56:36 PM 31.1481 -81.6764 16° North 121 139 3,000  Level Jacksonville Center
Mon 12:57:36 PM 31.1772 -81.6664 18° North 121 139 3,000  Level Jacksonville Center
Mon 12:58:36 PM 31.2106 -81.6539 14° North 121 139 3,000  Level Jacksonville Center
Mon 12:59:36 PM 31.2458 -81.6436 18° North 121 139 3,000  Level Jacksonville Center
Mon 01:00:36 PM 31.2792 -81.6311 27° Northeast 121 139 3,000  Level Jacksonville Center
Mon 01:01:36 PM 31.3042 -81.6161 35° Northeast 121 139 3,000 -50 Level Jacksonville Center
Mon 01:02:36 PM 31.3372 -81.5889 36° Northeast 121 139 2,900  Descending Jacksonville Center
Mon 01:03:36 PM 31.3661 -81.5642 32° Northeast 114 131 3,000 50 Climbing Jacksonville Center
Mon 01:04:36 PM 31.3972 -81.5417 21° North 114 131 3,000  Level Jacksonville Center
Mon 01:05:36 PM 31.4306 -81.5267 19° North 119 137 3,000  Level Jacksonville Center
Mon 01:06:36 PM 31.4617 -81.5142 19° North 124 143 3,000  Level Jacksonville Center
Mon 01:07:36 PM 31.4928 -81.5014 20° North 124 143 3,000  Level Jacksonville Center
Mon 01:08:36 PM 31.5283 -81.4861 21° North 124 143 3,000  Level Jacksonville Center
Mon 01:09:36 PM 31.5614 -81.4711 20° North 124 143 3,000 -50 Level Jacksonville Center
Mon 01:10:36 PM 31.5906 -81.4586 18° North 129 148 2,900 -50 Descending Jacksonville Center
Mon 01:11:36 PM 31.6239 -81.4458 20° North 129 148 2,900  Level Jacksonville Center
Mon 01:12:36 PM 31.6592 -81.4306 43° Northeast 129 148 2,900  Level Jacksonville Center
Mon 01:13:36 PM 31.6839 -81.4033 38° Northeast 129 148 2,900  Level Jacksonville Center
Mon 01:14:36 PM 31.7108 -81.3783 43° Northeast 124 143 2,900  Level Jacksonville Center
Mon 01:15:36 PM 31.7333 -81.3536 19° North 124 143 2,900  Level Jacksonville Center
Mon 01:23:32 PM 31.9741 -81.2541 19° North  Level FlightAware Approximate
Mon 01:24:32 PM 32.0044 -81.2415 19° North  Level FlightAware Approximate
Mon 01:25:32 PM 32.0347 -81.2289 19° North  Level FlightAware Approximate
Mon 01:26:32 PM 32.0651 -81.2163 19° North  Level FlightAware Approximate
Mon 01:27:32 PM 32.0954 -81.2037 19° North  Level FlightAware Approximate
Mon 01:28:32 PM 32.1257 -81.1910 25° Northeast  Level FlightAware Approximate
Mon 01:29:32 PM 32.1543 -81.1750 20° North  Level FlightAware Approximate
Mon 01:30:32 PM 32.1846 -81.1623 20° North  Level FlightAware Approximate
Mon 01:31:32 PM 32.2149 -81.1496 20° North  Level FlightAware Approximate
Mon 01:32:32 PM 32.2452 -81.1368 20° North  Level FlightAware Approximate
Mon 01:33:32 PM 32.2755 -81.1241 20° North  Level FlightAware Approximate
Mon 01:34:32 PM 32.3058 -81.1113 20° North  Level FlightAware Approximate
Mon 01:35:32 PM 32.3361 -81.0986 20° North  Level FlightAware Approximate
Mon 01:36:32 PM 32.3664 -81.0858 20° North  Level FlightAware Approximate
Mon 01:37:32 PM 32.3967 -81.0731 20° North  Level FlightAware Approximate
Mon 01:38:32 PM 32.4270 -81.0603 20° North  Level FlightAware Approximate
Mon 01:39:32 PM 32.4573 -81.0475 20° North  Level FlightAware Approximate
Mon 01:40:32 PM 32.4876 -81.0347 20° North  Level FlightAware Approximate
Mon 01:41:32 PM 32.5179 -81.0219 20° North  Level FlightAware Approximate
Mon 01:42:32 PM 32.5482 -81.0091 20° North  Level FlightAware Approximate
Mon 01:43:32 PM 32.5785 -80.9963 20° North  Level FlightAware Approximate
Mon 01:44:32 PM 32.6088 -80.9835 20° North  Level FlightAware Approximate
Mon 01:45:32 PM 32.6391 -80.9707 20° North  Level FlightAware Approximate
Mon 01:46:32 PM 32.6694 -80.9579 20° North  Level FlightAware Approximate
Mon 01:47:32 PM 32.6997 -80.9451 20° North  Level FlightAware Approximate
Mon 01:48:32 PM 32.7300 -80.9323 20° North  Level FlightAware Approximate
Mon 01:49:32 PM 32.7603 -80.9194 20° North  Level FlightAware Approximate
Mon 01:50:32 PM 32.7906 -80.9066 20° North  Level FlightAware Approximate
Mon 01:51:32 PM 32.8209 -80.8937 20° North  Level FlightAware Approximate
Mon 01:52:32 PM 32.8512 -80.8809 20° North  Level FlightAware Approximate
Mon 01:53:32 PM 32.8815 -80.8680 10° North  Level FlightAware Approximate
Mon 01:54:32 PM 32.9128 -80.8613 20° North  Level FlightAware Approximate
Mon 01:55:32 PM 32.9431 -80.8483 20° North  Level FlightAware Approximate
Mon 01:56:32 PM 32.9734 -80.8353 20° North  Level FlightAware Approximate
Mon 01:57:32 PM 33.0036 -80.8223 20° North  Level FlightAware Approximate
Mon 01:58:32 PM 33.0339 -80.8093 20° North  Level FlightAware Approximate
Mon 01:59:32 PM 33.0641 -80.7962 20° North  Level FlightAware Approximate
Mon 02:00:32 PM 33.0943 -80.7832 20° North  Level FlightAware Approximate
Mon 02:01:32 PM 33.1246 -80.7701 20° North  Level FlightAware Approximate
Mon 02:02:32 PM 33.1549 -80.7571 20° North  Level FlightAware Approximate
Mon 02:03:32 PM 33.1851 -80.7440 20° North  Level FlightAware Approximate
Mon 02:04:32 PM 33.2153 -80.7309 20° North  Level FlightAware Approximate
Mon 02:05:32 PM 33.2456 -80.7179 20° North  Level FlightAware Approximate
Mon 02:06:32 PM 33.2758 -80.7048 20° North  Level FlightAware Approximate
Mon 02:07:32 PM 33.3060 -80.6917 20° North  Level FlightAware Approximate
Mon 02:08:32 PM 33.3363 -80.6786 20° North  Level FlightAware Approximate
Mon 02:09:32 PM 33.3665 -80.6654 North  Level FlightAware Approximate
Mon 02:10:32 PM 33.3977 -80.6602 20° North  Level FlightAware Approximate
Mon 02:11:32 PM 33.4279 -80.6470 20° North  Level FlightAware Approximate
Mon 02:12:32 PM 33.4581 -80.6337 20° North  Level FlightAware Approximate
Mon 02:13:32 PM 33.4883 -80.6205 20° North  Level FlightAware Approximate
Mon 02:14:32 PM 33.5185 -80.6072 20° North  Level FlightAware Approximate
Mon 02:15:32 PM 33.5487 -80.5940 20° North  Level FlightAware Approximate
Mon 02:16:32 PM 33.5789 -80.5807 20° North  Level FlightAware Approximate
Mon 02:17:32 PM 33.6091 -80.5674 20° North  Level FlightAware Approximate
Mon 02:18:32 PM 33.6393 -80.5542 20° North  Level FlightAware Approximate
Mon 02:19:32 PM 33.6695 -80.5409 20° North  Level FlightAware Approximate
Mon 02:20:32 PM 33.6997 -80.5276 20° North  Level FlightAware Approximate
Mon 02:21:32 PM 33.7299 -80.5143 28° Northeast  Level FlightAware Approximate
Mon 02:22:32 PM 33.7583 -80.4963 20° North  Level FlightAware Approximate
Mon 02:23:32 PM 33.7885 -80.4830 20° North  Level FlightAware Approximate
Mon 02:24:32 PM 33.8187 -80.4697 20° North  Level FlightAware Approximate
Mon 02:25:32 PM 33.8489 -80.4564 20° North  Level FlightAware Approximate
Mon 02:26:32 PM 33.8791 -80.4431 20° North  Level FlightAware Approximate
Mon 02:27:32 PM 33.9093 -80.4298 24° Northeast  Level FlightAware Approximate
Mon 02:28:32 PM 33.9387 -80.4142 20° North  Level FlightAware Approximate
Mon 02:29:32 PM 33.9689 -80.4009 20° North  Level FlightAware Approximate
Mon 02:30:32 PM 33.9991 -80.3876 20° North  Level FlightAware Approximate
Mon 02:31:32 PM 34.0294 -80.3743 20° North  Level FlightAware Approximate
Mon 02:32:32 PM 34.0596 -80.3610 20° North  Level FlightAware Approximate
Mon 02:33:32 PM 34.0896 -80.3477 20° North  Level FlightAware Approximate
Mon 02:34:32 PM 34.1197 -80.3345 20° North  Level FlightAware Approximate
Mon 02:35:32 PM 34.1498 -80.3212 20° North  Level FlightAware Approximate
Mon 02:36:32 PM 34.1798 -80.3079 20° North  Level FlightAware Approximate
Mon 02:37:32 PM 34.2099 -80.2946 20° North  Level FlightAware Approximate
Mon 02:38:32 PM 34.2399 -80.2812 20° North  Level FlightAware Approximate
Mon 02:39:32 PM 34.2700 -80.2679 20° North  Level FlightAware Approximate
Mon 02:40:32 PM 34.3001 -80.2546 20° North  Level FlightAware Approximate
Mon 02:41:32 PM 34.3301 -80.2413 20° North  Level FlightAware Approximate
Mon 02:42:32 PM 34.3602 -80.2279 20° North  Level FlightAware Approximate
Mon 02:43:32 PM 34.3903 -80.2145 20° North  Level FlightAware Approximate
Mon 02:44:32 PM 34.4203 -80.2012 20° North  Level FlightAware Approximate
Mon 02:45:32 PM 34.4504 -80.1878 20° North  Level FlightAware Approximate
Mon 02:46:32 PM 34.4804 -80.1744 20° North  Level FlightAware Approximate
Mon 02:47:32 PM 34.5104 -80.1610 20° North  Level FlightAware Approximate
Mon 02:48:32 PM 34.5405 -80.1476 20° North  Level FlightAware Approximate
Mon 02:49:32 PM 34.5705 -80.1342 20° North  Level FlightAware Approximate
Mon 02:50:32 PM 34.6006 -80.1207 20° North  Level FlightAware Approximate
Mon 02:51:32 PM 34.6306 -80.1073 20° North  Level FlightAware Approximate
Mon 02:52:32 PM 34.6607 -80.0938 20° North  Level FlightAware Approximate
Mon 02:53:32 PM 34.6907 -80.0804 20° North  Level FlightAware Approximate
Mon 02:54:32 PM 34.7207 -80.0669 20° North  Level FlightAware Approximate
Mon 02:55:32 PM 34.7508 -80.0534 20° North  Level FlightAware Approximate
Mon 02:56:32 PM 34.7808 -80.0399 20° North  Level FlightAware Approximate
Mon 02:57:32 PM 34.8109 -80.0265 20° North  Level FlightAware Approximate
Mon 02:58:32 PM 34.8409 -80.0129 North  Level FlightAware Approximate
Mon 02:59:32 PM 34.8709 -80.0069 21° North  Level FlightAware Approximate
Mon 03:00:32 PM 34.9009 -79.9932 21° North  Level FlightAware Approximate
Mon 03:01:32 PM 34.9309 -79.9795 21° North  Level FlightAware Approximate
Mon 03:02:32 PM 34.9609 -79.9658 21° North  Level FlightAware Approximate
Mon 03:03:32 PM 34.9908 -79.9521 21° North  Level FlightAware Approximate
Mon 03:04:32 PM 35.0208 -79.9383 21° North  Level FlightAware Approximate
Mon 03:05:32 PM 35.0508 -79.9246 21° North  Level FlightAware Approximate
Mon 03:06:32 PM 35.0807 -79.9108 21° North  Level FlightAware Approximate
Mon 03:07:32 PM 35.1107 -79.8970 21° North  Level FlightAware Approximate
Mon 03:08:32 PM 35.1407 -79.8833 21° North  Level FlightAware Approximate
Mon 03:09:32 PM 35.1706 -79.8695 21° North  Level FlightAware Approximate
Mon 03:10:32 PM 35.2006 -79.8557 21° North  Level FlightAware Approximate
Mon 03:11:32 PM 35.2305 -79.8419 21° North  Level FlightAware Approximate
Mon 03:12:32 PM 35.2605 -79.8280 21° North  Level FlightAware Approximate
Mon 03:13:32 PM 35.2905 -79.8142 21° North  Level FlightAware Approximate
Mon 03:14:32 PM 35.3204 -79.8004 21° North  Level FlightAware Approximate
Mon 03:15:32 PM 35.3504 -79.7865 21° North  Level FlightAware Approximate
Mon 03:16:32 PM 35.3803 -79.7727 27° Northeast  Level FlightAware Approximate
Mon 03:17:32 PM 35.4079 -79.7552 20° North  Level FlightAware Approximate
Mon 03:18:32 PM 35.4379 -79.7416 20° North  Level FlightAware Approximate
Mon 03:19:32 PM 35.4679 -79.7279 20° North  Level FlightAware Approximate
Mon 03:20:32 PM 35.4979 -79.7142 20° North  Level FlightAware Approximate
Mon 03:21:32 PM 35.5279 -79.7005 20° North  Level FlightAware Approximate
Mon 03:22:32 PM 35.5579 -79.6867 20° North  Level FlightAware Approximate
Mon 03:23:32 PM 35.5880 -79.6730 20° North  Level FlightAware Approximate
Mon 03:24:32 PM 35.6180 -79.6593 20° North  Level FlightAware Approximate
Mon 03:25:32 PM 35.6479 -79.6455 20° North  Level FlightAware Approximate
Mon 03:26:32 PM 35.6780 -79.6318 20° North  Level FlightAware Approximate
Mon 03:27:32 PM 35.7080 -79.6180 20° North  Level FlightAware Approximate
Mon 03:28:32 PM 35.7379 -79.6042 20° North  Level FlightAware Approximate
Mon 03:29:32 PM 35.7679 -79.5904 20° North  Level FlightAware Approximate
Mon 03:30:32 PM 35.7979 -79.5766 20° North  Level FlightAware Approximate
Mon 03:31:32 PM 35.8279 -79.5628 20° North  Level FlightAware Approximate
Mon 03:32:32 PM 35.8579 -79.5490 20° North  Level FlightAware Approximate
Mon 03:33:32 PM 35.8879 -79.5351 21° North  Level FlightAware Approximate
Mon 03:34:32 PM 35.9179 -79.5213 21° North  Level FlightAware Approximate
Mon 03:35:32 PM 35.9479 -79.5074 21° North  Level FlightAware Approximate
Mon 03:36:32 PM 35.9779 -79.4936 21° North  Level FlightAware Approximate
Mon 03:37:32 PM 36.0078 -79.4795 North  Level FlightAware Approximate
Mon 03:38:32 PM 36.0396 -79.4759 198° South  Level Estimated
Mon 03:39:32 PM 35.7617 -79.5897 20° North  Level FlightAware Approximate
Mon 03:40:32 PM 35.7918 -79.5763 20° North  Level FlightAware Approximate
Mon 03:41:32 PM 35.8219 -79.5629 20° North  Level FlightAware Approximate
Mon 03:42:32 PM 35.8520 -79.5495 20° North  Level FlightAware Approximate
Mon 03:43:32 PM 35.8821 -79.5360 20° North  Level FlightAware Approximate
Mon 03:44:32 PM 35.9122 -79.5226 20° North  Level FlightAware Approximate
Mon 03:45:32 PM 35.9423 -79.5091 20° North  Level FlightAware Approximate
Mon 03:46:32 PM 35.9724 -79.4957 20° North  Level FlightAware Approximate
Mon 03:47:32 PM 36.0025 -79.4821 North  Level FlightAware Approximate
Mon 03:48:32 PM 36.0343 -79.4771 North  Level Estimated
Mon 03:49:32 PM 36.0660 -79.4722 187° South  Level Estimated
Mon 03:50:32 PM 36.0343 -79.4771 North  Level Estimated
Mon 03:51:32 PM 36.0660 -79.4722 North  Level Estimated

Login

Don't have an account? Register now (free) for customized features, flight alerts, and more!